X  Tanca Dades meteorològiques de l'aviació METAR     KSDL Scottsdale Airport
Temperatura
73°F Temperatura
36°F Rosada
25% Humitat



Vent
0 MPH
0 KM/H
0 M/S
0 NUS



Tranquil
Nord
Condicions actuals

Sense núvols Sense núvols
Pressió 1015.22 (hPa) - 29.98 (inHg)
Visibilitat 9.9 (milla) - 16 (km)
Aeroport
Codi aeroport KSDL

Ubicació: Scottsdale Airport
Distància: 14 (mi)

Metar:
KSDL 170853Z AUTO 00000KT 10SM CLR 23/02 A2998 RMK AO2 SLP129 T02330017 55002

Temps: 2021-10-17 01:53 MST